Time;durP1;ratioP1;P1;durP2;ratioP2;P2;SDS_P1;SDS_P2;PMS_P1;PMS_P2;Temp;Humidity;BMP_temperature;BMP_pressure;BME280_temperature;BME280_humidity;BME280_pressure;Samples;Min_cycle;Max_cycle;Signal;HPM_P1;HPM_P2
2023/10/30 00:02:07;;;;;;;9.40;1.52;;;;;;;;;;5029005;28;20053;-60
2023/10/30 00:04:34;;;;;;;2.10;0.88;;;;;;;;;;5034217;28;20057;-60
2023/10/30 00:07:01;;;;;;;5.25;1.08;;;;;;;;;;5041083;28;20085;-60
2023/10/30 00:09:29;;;;;;;6.25;2.03;;;;;;;;;;5035878;28;20172;-60
2023/10/30 00:12:00;;;;;;;;;;;;;;;;;;5004517;28;20055;-60
2023/10/30 00:14:27;;;;;;;4.78;1.35;;;;;;;;;;5035948;28;19940;-60
2023/10/30 00:16:55;;;;;;;9.75;1.67;;;;;;;;;;5025203;28;20061;-61
2023/10/30 00:19:22;;;;;;;4.07;1.30;;;;;;;;;;5021747;28;20041;-62
2023/10/30 00:21:48;;;;;;;6.95;1.10;;;;;;;;;;5018538;28;20061;-61
2023/10/30 00:24:16;;;;;;;6.10;1.40;;;;;;;;;;5023400;28;20038;-61
2023/10/30 00:26:43;;;;;;;6.07;0.90;;;;;;;;;;5024986;28;20054;-60
2023/10/30 00:29:14;;;;;;;3.25;1.00;;;;;;;;;;5024303;28;20138;-60
2023/10/30 00:31:41;;;;;;;7.50;1.17;;;;;;;;;;4999820;28;20053;-60
2023/10/30 00:34:10;;;;;;;5.90;1.23;;;;;;;;;;5027395;28;20099;-61
2023/10/30 00:36:49;;;;;;;6.57;1.00;;;;;;;;;;5023953;28;20049;-60
2023/10/30 00:39:16;;;;;;;7.25;1.05;;;;;;;;;;5024175;28;20111;-61
2023/10/30 00:41:44;;;;;;;4.03;1.10;;;;;;;;;;5007269;28;20119;-60
2023/10/30 00:44:18;;;;;;;5.13;1.45;;;;;;;;;;5024860;28;20038;-61
2023/10/30 00:46:47;;;;;;;4.38;1.02;;;;;;;;;;5023379;28;20125;-60
2023/10/30 00:49:15;;;;;;;4.53;0.95;;;;;;;;;;5025440;28;20111;-60
2023/10/30 00:51:42;;;;;;;7.00;1.17;;;;;;;;;;5006254;28;20057;-60
2023/10/30 00:54:11;;;;;;;4.45;1.02;;;;;;;;;;5024184;28;20052;-61
2023/10/30 00:56:37;;;;;;;3.20;0.90;;;;;;;;;;5020585;28;20066;-60
2023/10/30 00:59:04;;;;;;;13.80;1.50;;;;;;;;;;5022979;28;20052;-61
2023/10/30 01:01:41;;;;;;;11.95;1.23;;;;;;;;;;4977272;28;20045;-61
2023/10/30 01:04:15;;;;;;;7.82;1.40;;;;;;;;;;5023442;28;20061;-61
2023/10/30 01:06:44;;;;;;;8.63;1.35;;;;;;;;;;5020903;28;20274;-61
2023/10/30 01:09:11;;;;;;;6.32;1.02;;;;;;;;;;5024214;28;20125;-61
2023/10/30 01:11:38;;;;;;;5.45;1.25;;;;;;;;;;5015527;28;20064;-61
2023/10/30 01:14:05;;;;;;;10.50;3.60;;;;;;;;;;5023664;28;20057;-61
2023/10/30 01:16:31;;;;;;;8.93;1.40;;;;;;;;;;5020644;28;20413;-61
2023/10/30 01:18:59;;;;;;;7.32;1.40;;;;;;;;;;5021852;28;20050;-61
2023/10/30 01:21:26;;;;;;;6.22;1.08;;;;;;;;;;5012791;28;20041;-61
2023/10/30 01:23:53;;;;;;;2.08;0.77;;;;;;;;;;5021987;28;20148;-60
2023/10/30 01:26:19;;;;;;;12.13;1.25;;;;;;;;;;5017924;28;20142;-61
2023/10/30 01:28:46;;;;;;;6.50;1.20;;;;;;;;;;5020651;28;20146;-59
2023/10/30 01:31:12;;;;;;;10.95;0.88;;;;;;;;;;5020110;28;20057;-59
2023/10/30 01:33:39;;;;;;;2.55;0.70;;;;;;;;;;5022823;28;20057;-61
2023/10/30 01:36:08;;;;;;;14.73;1.50;;;;;;;;;;5023493;28;20077;-61
2023/10/30 01:38:37;;;;;;;3.55;0.82;;;;;;;;;;5010599;28;20057;-61
2023/10/30 01:41:05;;;;;;;6.55;1.00;;;;;;;;;;5025161;28;20077;-61
2023/10/30 01:43:32;;;;;;;7.75;0.93;;;;;;;;;;5033360;28;20132;-61
2023/10/30 01:46:00;;;;;;;5.10;0.95;;;;;;;;;;5023829;28;20089;-59
2023/10/30 01:48:30;;;;;;;13.95;1.48;;;;;;;;;;5021080;28;20081;-60
2023/10/30 01:50:57;;;;;;;8.15;1.10;;;;;;;;;;5017668;28;20053;-60
2023/10/30 01:53:26;;;;;;;9.68;1.38;;;;;;;;;;5023402;28;20053;-60
2023/10/30 01:55:53;;;;;;;8.30;1.00;;;;;;;;;;5024742;28;20141;-60
2023/10/30 01:58:21;;;;;;;4.70;1.05;;;;;;;;;;5017043;28;20153;-60
2023/10/30 02:00:47;;;;;;;8.85;1.17;;;;;;;;;;5023687;28;20135;-60
2023/10/30 02:03:14;;;;;;;11.13;1.70;;;;;;;;;;5026717;28;20078;-60
2023/10/30 02:05:41;;;;;;;9.68;0.90;;;;;;;;;;5026155;28;20140;-60
2023/10/30 02:08:09;;;;;;;3.78;0.85;;;;;;;;;;5029911;28;20059;-60
2023/10/30 02:10:37;;;;;;;9.43;1.20;;;;;;;;;;5030121;28;20395;-60
2023/10/30 02:13:06;;;;;;;8.07;0.98;;;;;;;;;;5024893;28;20053;-60
2023/10/30 02:15:32;;;;;;;;;;;;;;;;;;5025716;28;20048;-60
2023/10/30 02:17:59;;;;;;;13.95;1.23;;;;;;;;;;5026931;28;19931;-60
2023/10/30 02:20:26;;;;;;;5.60;1.05;;;;;;;;;;5033391;28;20060;-61
2023/10/30 02:22:52;;;;;;;6.32;1.10;;;;;;;;;;5043000;28;20124;-60
2023/10/30 02:25:22;;;;;;;13.27;1.23;;;;;;;;;;5031446;28;20051;-60
2023/10/30 02:27:49;;;;;;;17.75;1.25;;;;;;;;;;5026942;28;20075;-60
2023/10/30 02:30:16;;;;;;;7.65;0.85;;;;;;;;;;5029006;28;20072;-60
2023/10/30 02:32:44;;;;;;;7.97;1.48;;;;;;;;;;5048982;28;20048;-60
2023/10/30 02:35:12;;;;;;;7.95;0.95;;;;;;;;;;5033390;28;20052;-60
2023/10/30 02:37:39;;;;;;;;;;;;;;;;;;5026919;28;20068;-60
2023/10/30 02:40:07;;;;;;;5.50;0.80;;;;;;;;;;5036610;28;20020;-60
2023/10/30 02:42:35;;;;;;;2.10;0.77;;;;;;;;;;5019692;28;20112;-60
2023/10/30 02:45:03;;;;;;;7.22;0.85;;;;;;;;;;5043329;28;20048;-60
2023/10/30 02:47:30;;;;;;;12.23;1.17;;;;;;;;;;5045252;28;20527;-60
2023/10/30 02:49:57;;;;;;;8.05;1.02;;;;;;;;;;5039643;28;20120;-60
2023/10/30 02:52:24;;;;;;;11.45;1.08;;;;;;;;;;5055977;28;20120;-60
2023/10/30 02:54:51;;;;;;;4.65;1.33;;;;;;;;;;5048054;28;20119;-60
2023/10/30 02:57:17;;;;;;;6.90;0.98;;;;;;;;;;5037710;28;20060;-60
2023/10/30 02:59:45;;;;;;;4.75;1.00;;;;;;;;;;5020837;28;20132;-60
2023/10/30 03:02:12;;;;;;;10.63;1.20;;;;;;;;;;5025216;28;20156;-60
2023/10/30 03:04:38;;;;;;;5.20;1.10;;;;;;;;;;5026231;28;20273;-60
2023/10/30 03:07:05;;;;;;;5.20;0.90;;;;;;;;;;5019462;28;20053;-60
2023/10/30 03:09:33;;;;;;;10.52;1.02;;;;;;;;;;5036277;28;20057;-60
2023/10/30 03:12:00;;;;;;;7.43;1.52;;;;;;;;;;4982727;28;20216;-60
2023/10/30 03:14:27;;;;;;;3.95;1.00;;;;;;;;;;4981124;28;20149;-60
2023/10/30 03:16:55;;;;;;;6.65;0.95;;;;;;;;;;4998138;28;20060;-60
2023/10/30 03:19:21;;;;;;;2.97;0.85;;;;;;;;;;4991563;28;20132;-60
2023/10/30 03:21:48;;;;;;;6.43;1.02;;;;;;;;;;4991646;28;20088;-59
2023/10/30 03:24:15;;;;;;;7.40;0.80;;;;;;;;;;5001194;28;20049;-59
2023/10/30 03:26:42;;;;;;;12.23;1.05;;;;;;;;;;4999591;28;20472;-61
2023/10/30 03:29:08;;;;;;;6.47;1.20;;;;;;;;;;5000224;28;20061;-59
2023/10/30 03:31:35;;;;;;;12.57;1.10;;;;;;;;;;5010785;28;20058;-61
2023/10/30 03:34:03;;;;;;;7.45;1.05;;;;;;;;;;5013322;28;21870;-58
2023/10/30 03:36:30;;;;;;;12.15;1.15;;;;;;;;;;5033280;28;20107;-61
2023/10/30 03:38:57;;;;;;;6.47;1.10;;;;;;;;;;5020563;28;20078;-61
2023/10/30 03:41:23;;;;;;;5.40;0.95;;;;;;;;;;5011055;28;20081;-61
2023/10/30 03:43:50;;;;;;;7.50;0.95;;;;;;;;;;4993929;28;20130;-61
2023/10/30 03:46:17;;;;;;;4.13;0.73;;;;;;;;;;5017816;28;20080;-61
2023/10/30 03:48:43;;;;;;;6.20;1.08;;;;;;;;;;5021041;28;20162;-61
2023/10/30 03:51:11;;;;;;;4.38;0.80;;;;;;;;;;5017839;28;20084;-61
2023/10/30 03:53:38;;;;;;;6.75;0.88;;;;;;;;;;5040408;28;20234;-61
2023/10/30 03:56:06;;;;;;;3.70;0.93;;;;;;;;;;5020294;28;20159;-60
2023/10/30 03:58:32;;;;;;;7.40;1.17;;;;;;;;;;5041777;28;20064;-60
2023/10/30 04:01:05;;;;;;;6.45;0.73;;;;;;;;;;5016173;28;20136;-60
2023/10/30 04:03:32;;;;;;;6.65;0.90;;;;;;;;;;5022892;28;20072;-59
2023/10/30 04:06:01;;;;;;;4.40;1.02;;;;;;;;;;5019225;28;20156;-60
2023/10/30 04:08:29;;;;;;;10.15;1.05;;;;;;;;;;5041097;28;20130;-60
2023/10/30 04:10:56;;;;;;;4.38;0.77;;;;;;;;;;5021288;28;20053;-60
2023/10/30 04:13:23;;;;;;;7.45;1.10;;;;;;;;;;4999915;28;20059;-61
2023/10/30 04:15:49;;;;;;;3.45;0.70;;;;;;;;;;5012652;28;20053;-60
2023/10/30 04:18:16;;;;;;;5.90;0.90;;;;;;;;;;5003156;28;20089;-59
2023/10/30 04:20:43;;;;;;;4.72;0.93;;;;;;;;;;5002318;28;20053;-61
2023/10/30 04:23:10;;;;;;;9.40;0.90;;;;;;;;;;4997863;28;20057;-61
2023/10/30 04:25:38;;;;;;;2.55;0.80;;;;;;;;;;5032566;28;20057;-63
2023/10/30 04:28:05;;;;;;;6.88;0.88;;;;;;;;;;5021832;28;20148;-61
2023/10/30 04:30:32;;;;;;;3.30;1.00;;;;;;;;;;5023548;28;20085;-59
2023/10/30 04:32:58;;;;;;;4.45;1.13;;;;;;;;;;5025541;28;20053;-59
2023/10/30 04:35:25;;;;;;;8.07;1.60;;;;;;;;;;5020765;28;20089;-62
2023/10/30 04:37:51;;;;;;;4.72;1.25;;;;;;;;;;4997428;28;20065;-60
2023/10/30 04:40:18;;;;;;;7.45;1.77;;;;;;;;;;5020868;28;20160;-59
2023/10/30 04:42:47;;;;;;;13.30;2.00;;;;;;;;;;5003042;28;20147;-59
2023/10/30 04:45:13;;;;;;;6.97;1.85;;;;;;;;;;5023080;28;20049;-59
2023/10/30 04:47:42;;;;;;;6.07;1.73;;;;;;;;;;5018651;28;20060;-60
2023/10/30 04:50:10;;;;;;;10.40;1.70;;;;;;;;;;5019460;28;20056;-60
2023/10/30 04:52:36;;;;;;;6.00;1.63;;;;;;;;;;5017482;28;20049;-59
2023/10/30 04:55:03;;;;;;;6.20;1.42;;;;;;;;;;5022547;28;20068;-59
2023/10/30 04:57:29;;;;;;;7.13;1.92;;;;;;;;;;5021947;28;20106;-60
2023/10/30 04:59:58;;;;;;;7.68;1.70;;;;;;;;;;5015217;28;20282;-59
2023/10/30 05:02:25;;;;;;;;;;;;;;;;;;5040720;28;20053;-59
2023/10/30 05:04:51;;;;;;;7.80;2.15;;;;;;;;;;5039386;28;19982;-59
2023/10/30 05:07:18;;;;;;;9.90;2.72;;;;;;;;;;5001332;28;20088;-59
2023/10/30 05:09:45;;;;;;;9.88;2.47;;;;;;;;;;5031302;28;20053;-61
2023/10/30 05:12:11;;;;;;;5.57;2.38;;;;;;;;;;4997596;28;20049;-60
2023/10/30 05:14:38;;;;;;;7.30;2.03;;;;;;;;;;5055041;28;20064;-60
2023/10/30 05:17:06;;;;;;;6.30;1.73;;;;;;;;;;5020979;28;20124;-60
2023/10/30 05:19:36;;;;;;;6.25;1.50;;;;;;;;;;5021970;28;20044;-59
2023/10/30 05:22:04;;;;;;;4.63;1.73;;;;;;;;;;5011536;28;20053;-62
2023/10/30 05:24:30;;;;;;;5.32;1.67;;;;;;;;;;5027001;28;20057;-59
2023/10/30 05:26:57;;;;;;;7.80;1.83;;;;;;;;;;5036952;28;20048;-59
2023/10/30 05:29:24;;;;;;;9.52;2.22;;;;;;;;;;5038077;28;20091;-60
2023/10/30 05:31:52;;;;;;;7.53;2.05;;;;;;;;;;5012627;28;20076;-60
2023/10/30 05:34:20;;;;;;;8.73;2.10;;;;;;;;;;5035375;28;20045;-60
2023/10/30 05:36:47;;;;;;;5.63;1.67;;;;;;;;;;5035040;28;20057;-60
2023/10/30 05:39:13;;;;;;;5.15;2.10;;;;;;;;;;5037716;28;20140;-60
2023/10/30 05:41:40;;;;;;;7.57;2.35;;;;;;;;;;5028330;28;20056;-60
2023/10/30 05:44:06;;;;;;;6.32;2.03;;;;;;;;;;5034978;28;20111;-60
2023/10/30 05:46:33;;;;;;;11.68;2.45;;;;;;;;;;5042556;28;20110;-60
2023/10/30 05:49:00;;;;;;;6.90;1.58;;;;;;;;;;5036579;28;20080;-61
2023/10/30 05:51:31;;;;;;;10.50;1.95;;;;;;;;;;5032007;28;20135;-61
2023/10/30 05:53:58;;;;;;;9.20;1.60;;;;;;;;;;5032238;28;20053;-61
2023/10/30 05:56:24;;;;;;;4.07;1.80;;;;;;;;;;5035297;28;20084;-60
2023/10/30 05:58:51;;;;;;;14.25;3.78;;;;;;;;;;5043034;28;20156;-61
2023/10/30 06:01:18;;;;;;;12.13;4.43;;;;;;;;;;5023408;28;20068;-59
2023/10/30 06:03:46;;;;;;;11.82;2.97;;;;;;;;;;5016534;28;20137;-61
2023/10/30 06:06:13;;;;;;;7.82;2.00;;;;;;;;;;5024773;28;20061;-61
2023/10/30 06:08:41;;;;;;;7.80;2.13;;;;;;;;;;5019252;28;20152;-60
2023/10/30 06:11:08;;;;;;;6.32;1.80;;;;;;;;;;5015380;28;20053;-60
2023/10/30 06:13:35;;;;;;;11.05;1.98;;;;;;;;;;5020626;28;20156;-62
2023/10/30 06:16:02;;;;;;;5.68;1.70;;;;;;;;;;5018307;28;20081;-60
2023/10/30 06:18:28;;;;;;;8.93;1.90;;;;;;;;;;5021612;28;20053;-60
2023/10/30 06:20:56;;;;;;;8.18;2.15;;;;;;;;;;5020939;28;20057;-63
2023/10/30 06:23:22;;;;;;;6.22;2.33;;;;;;;;;;5019774;28;20053;-60
2023/10/30 06:25:51;;;;;;;8.25;2.78;;;;;;;;;;5030275;28;20056;-60
2023/10/30 06:28:18;;;;;;;;;;;;;;;;;;5020384;28;20045;-60
2023/10/30 06:30:44;;;;;;;9.38;2.60;;;;;;;;;;5020500;28;19987;-60
2023/10/30 06:33:11;;;;;;;12.45;3.90;;;;;;;;;;5017644;28;20120;-60
2023/10/30 06:35:38;;;;;;;5.85;2.45;;;;;;;;;;5021714;28;20049;-61
2023/10/30 06:38:05;;;;;;;7.07;1.65;;;;;;;;;;5017354;28;20053;-60
2023/10/30 06:40:32;;;;;;;5.93;1.50;;;;;;;;;;5019831;28;20108;-60
2023/10/30 06:43:00;;;;;;;5.55;1.40;;;;;;;;;;5016392;28;20064;-60
2023/10/30 06:45:26;;;;;;;7.15;1.27;;;;;;;;;;5016439;28;20046;-60
2023/10/30 06:47:53;;;;;;;9.00;1.55;;;;;;;;;;5012423;28;20296;-63
2023/10/30 06:50:22;;;;;;;6.25;1.10;;;;;;;;;;5019542;28;20123;-61
2023/10/30 06:52:49;;;;;;;7.57;0.98;;;;;;;;;;5013978;28;20049;-61
2023/10/30 06:55:16;;;;;;;5.38;1.00;;;;;;;;;;5020308;28;20053;-60
2023/10/30 06:57:46;;;;;;;6.45;1.17;;;;;;;;;;5013186;28;20059;-61
2023/10/30 07:00:18;;;;;;;6.03;1.00;;;;;;;;;;5016304;28;20057;-60
2023/10/30 07:02:45;;;;;;;8.18;1.15;;;;;;;;;;5005632;28;20049;-60
2023/10/30 07:05:12;;;;;;;9.85;1.35;;;;;;;;;;5003606;28;20049;-61
2023/10/30 07:07:42;;;;;;;9.73;1.20;;;;;;;;;;4996924;28;20113;-60
2023/10/30 07:10:10;;;;;;;9.77;1.38;;;;;;;;;;4999626;28;20061;-60
2023/10/30 07:12:37;;;;;;;;;;;;;;;;;;5005052;28;20057;-61
2023/10/30 07:15:08;;;;;;;5.05;1.08;;;;;;;;;;5014371;28;19952;-60
2023/10/30 07:17:39;;;;;;;9.80;1.27;;;;;;;;;;5029292;28;20052;-61
2023/10/30 07:20:08;;;;;;;5.53;1.40;;;;;;;;;;5016333;28;20096;-60
2023/10/30 07:22:36;;;;;;;17.83;1.38;;;;;;;;;;5010093;28;20060;-61
2023/10/30 07:25:03;;;;;;;6.05;1.55;;;;;;;;;;5060111;28;20045;-60
2023/10/30 07:27:29;;;;;;;14.23;1.50;;;;;;;;;;5057442;28;20047;-60
2023/10/30 07:29:56;;;;;;;13.75;1.10;;;;;;;;;;5014406;28;20052;-61
2023/10/30 07:32:23;;;;;;;3.60;0.90;;;;;;;;;;5016549;28;20130;-61
2023/10/30 07:34:51;;;;;;;3.55;0.93;;;;;;;;;;5026835;28;20060;-61
2023/10/30 07:37:18;;;;;;;12.50;1.20;;;;;;;;;;5029072;28;20052;-60
2023/10/30 07:39:45;;;;;;;9.88;1.20;;;;;;;;;;5024290;28;20083;-60
2023/10/30 07:42:12;;;;;;;5.75;0.95;;;;;;;;;;4977388;28;20054;-60
2023/10/30 07:44:38;;;;;;;6.97;1.08;;;;;;;;;;5017265;28;20053;-61
2023/10/30 07:47:07;;;;;;;7.95;1.10;;;;;;;;;;5022581;28;20061;-61
2023/10/30 07:49:34;;;;;;;7.07;1.13;;;;;;;;;;5021549;28;20053;-61
2023/10/30 07:52:02;;;;;;;8.20;1.45;;;;;;;;;;5030831;28;20267;-61
2023/10/30 07:54:29;;;;;;;6.50;1.25;;;;;;;;;;5023870;28;20053;-61
2023/10/30 07:56:57;;;;;;;10.70;1.10;;;;;;;;;;5057448;28;20057;-60
2023/10/30 07:59:24;;;;;;;14.18;1.25;;;;;;;;;;5023758;28;20049;-61
2023/10/30 08:01:51;;;;;;;12.55;1.25;;;;;;;;;;5007958;28;20096;-61
2023/10/30 08:04:18;;;;;;;6.07;1.25;;;;;;;;;;5022108;28;20068;-60
2023/10/30 08:06:45;;;;;;;10.27;1.25;;;;;;;;;;5019617;28;20140;-61
2023/10/30 08:09:13;;;;;;;6.95;1.23;;;;;;;;;;5023947;28;20045;-61
2023/10/30 08:11:46;;;;;;;4.00;1.10;;;;;;;;;;4975698;28;20070;-61
2023/10/30 08:14:13;;;;;;;10.27;1.20;;;;;;;;;;5013916;28;20085;-61
2023/10/30 08:16:41;;;;;;;4.18;0.80;;;;;;;;;;5000319;28;20081;-60
2023/10/30 08:19:08;;;;;;;2.40;0.82;;;;;;;;;;5003957;28;20137;-61
2023/10/30 08:21:38;;;;;;;5.32;1.23;;;;;;;;;;4992099;28;20187;-61
2023/10/30 08:24:06;;;;;;;7.00;1.05;;;;;;;;;;5019953;28;20093;-60
2023/10/30 08:26:34;;;;;;;7.78;1.35;;;;;;;;;;5013912;28;20081;-60
2023/10/30 08:29:03;;;;;;;7.07;1.30;;;;;;;;;;5018872;28;20053;-62
2023/10/30 08:31:30;;;;;;;;;;;;;;;;;;5021252;28;20053;-62
2023/10/30 08:34:00;;;;;;;6.65;0.95;;;;;;;;;;5027997;28;19925;-62
2023/10/30 08:36:30;;;;;;;7.10;1.48;;;;;;;;;;5017305;28;20091;-62
2023/10/30 08:38:59;;;;;;;8.13;1.45;;;;;;;;;;5018980;28;20064;-62
2023/10/30 08:41:26;;;;;;;;;;;;;;;;;;5006463;28;20124;-60
2023/10/30 08:43:54;;;;;;;4.00;1.10;;;;;;;;;;5028264;28;20485;-62
2023/10/30 08:46:22;;;;;;;6.18;1.30;;;;;;;;;;5018407;28;20053;-61
2023/10/30 08:48:49;;;;;;;;;;;;;;;;;;5020734;28;20169;-62
2023/10/30 08:51:16;;;;;;;7.47;1.60;;;;;;;;;;5028912;28;20049;-62
2023/10/30 08:53:43;;;;;;;2.88;1.10;;;;;;;;;;5013347;28;20061;-62
2023/10/30 08:56:10;;;;;;;8.88;1.90;;;;;;;;;;5018689;28;20085;-62
2023/10/30 08:58:37;;;;;;;14.70;2.55;;;;;;;;;;5023691;28;20049;-62
2023/10/30 09:01:05;;;;;;;8.65;1.60;;;;;;;;;;5009745;28;20057;-62
2023/10/30 09:03:38;;;;;;;9.52;2.20;;;;;;;;;;5006832;28;20055;-62
2023/10/30 09:06:07;;;;;;;9.77;2.05;;;;;;;;;;5019465;28;20152;-62
2023/10/30 09:08:33;;;;;;;6.97;1.27;;;;;;;;;;5020461;28;20157;-60
2023/10/30 09:11:02;;;;;;;5.07;1.15;;;;;;;;;;5017280;28;20057;-61
2023/10/30 09:13:31;;;;;;;10.52;1.52;;;;;;;;;;5008341;28;20057;-64
2023/10/30 09:15:58;;;;;;;5.75;1.08;;;;;;;;;;5014543;28;20053;-60
2023/10/30 09:18:27;;;;;;;10.32;1.38;;;;;;;;;;5020255;28;20064;-60
2023/10/30 09:20:56;;;;;;;14.20;1.23;;;;;;;;;;5016965;28;20053;-60
2023/10/30 09:23:26;;;;;;;6.43;1.25;;;;;;;;;;4961328;28;20057;-60
2023/10/30 09:25:52;;;;;;;8.02;1.30;;;;;;;;;;5006091;28;20050;-60
2023/10/30 09:28:19;;;;;;;5.25;0.90;;;;;;;;;;4998701;28;20060;-60
2023/10/30 09:30:46;;;;;;;13.02;1.13;;;;;;;;;;5014910;28;20093;-61
2023/10/30 09:33:12;;;;;;;4.97;1.15;;;;;;;;;;4993445;28;20061;-61
2023/10/30 09:35:43;;;;;;;5.30;1.13;;;;;;;;;;5016399;28;20068;-61
2023/10/30 09:38:11;;;;;;;12.32;1.80;;;;;;;;;;4998103;28;20061;-61
2023/10/30 09:40:40;;;;;;;4.80;1.42;;;;;;;;;;5021310;28;20137;-61
2023/10/30 09:43:14;;;;;;;6.18;1.52;;;;;;;;;;5004598;28;20152;-61
2023/10/30 09:45:42;;;;;;;5.70;1.58;;;;;;;;;;5008293;28;20057;-61
2023/10/30 09:48:10;;;;;;;9.13;1.52;;;;;;;;;;5018715;28;20060;-61
2023/10/30 09:50:41;;;;;;;7.57;1.60;;;;;;;;;;5020342;28;20108;-61
2023/10/30 09:53:10;;;;;;;9.98;1.90;;;;;;;;;;4994811;28;20133;-60
2023/10/30 09:55:38;;;;;;;19.02;2.13;;;;;;;;;;5014811;28;20085;-61
2023/10/30 09:58:08;;;;;;;9.77;1.45;;;;;;;;;;5011930;28;20129;-61
2023/10/30 10:00:34;;;;;;;4.57;1.38;;;;;;;;;;5022290;28;20056;-61
2023/10/30 10:03:05;;;;;;;9.05;1.17;;;;;;;;;;5016025;28;20049;-62
2023/10/30 10:05:37;;;;;;;;;;;;;;;;;;5020167;28;20053;-60
2023/10/30 10:08:07;;;;;;;7.50;1.02;;;;;;;;;;4996344;28;19992;-61
2023/10/30 10:10:55;;;;;;;10.68;1.50;;;;;;;;;;5014811;28;20131;-60
2023/10/30 10:13:22;;;;;;;8.48;1.42;;;;;;;;;;5014484;28;20057;-60
2023/10/30 10:15:49;;;;;;;7.07;1.33;;;;;;;;;;5011371;28;20048;-61
2023/10/30 10:18:24;;;;;;;7.85;1.50;;;;;;;;;;5019421;28;20147;-61
2023/10/30 10:21:02;;;;;;;11.73;1.30;;;;;;;;;;5021799;28;20110;-61
2023/10/30 10:23:40;;;;;;;7.05;1.42;;;;;;;;;;5033844;28;20143;-64
2023/10/30 10:26:13;;;;;;;12.60;4.53;;;;;;;;;;5010392;28;20053;-61
2023/10/30 10:28:40;;;;;;;10.73;2.45;;;;;;;;;;5036291;28;20061;-61
2023/10/30 10:31:07;;;;;;;12.07;2.45;;;;;;;;;;5021005;28;20076;-61
2023/10/30 10:33:40;;;;;;;9.48;1.70;;;;;;;;;;5001154;28;20060;-61
2023/10/30 10:36:08;;;;;;;13.77;1.60;;;;;;;;;;4994436;28;20061;-61
2023/10/30 10:38:39;;;;;;;12.23;1.40;;;;;;;;;;5023374;28;20381;-60
2023/10/30 10:41:09;;;;;;;6.85;1.30;;;;;;;;;;5018942;28;20048;-60
2023/10/30 10:43:38;;;;;;;3.47;1.00;;;;;;;;;;5016081;28;20060;-60
2023/10/30 10:46:05;;;;;;;;;;;;;;;;;;5017239;28;20065;-61
2023/10/30 10:48:31;;;;;;;10.65;1.50;;;;;;;;;;5036715;28;20019;-60
2023/10/30 10:51:03;;;;;;;8.75;1.50;;;;;;;;;;5018841;28;20055;-61
2023/10/30 10:53:30;;;;;;;11.57;1.15;;;;;;;;;;4993229;28;20061;-61
2023/10/30 10:56:04;;;;;;;7.03;1.27;;;;;;;;;;5008893;28;20293;-61
2023/10/30 10:58:42;;;;;;;15.25;1.77;;;;;;;;;;5016486;28;20132;-60
2023/10/30 11:01:11;;;;;;;6.45;1.20;;;;;;;;;;5016957;28;20141;-61
2023/10/30 11:03:38;;;;;;;9.50;1.38;;;;;;;;;;5009816;28;20064;-61
2023/10/30 11:06:07;;;;;;;4.03;1.15;;;;;;;;;;5011101;28;20057;-60
2023/10/30 11:08:45;;;;;;;3.22;0.90;;;;;;;;;;5015550;28;20057;-61
2023/10/30 11:11:18;;;;;;;11.10;1.20;;;;;;;;;;4998819;28;20061;-60
2023/10/30 11:13:58;;;;;;;9.82;2.05;;;;;;;;;;4967992;28;20080;-62
2023/10/30 11:16:29;;;;;;;8.60;2.40;;;;;;;;;;5016858;28;20068;-61
2023/10/30 11:18:59;;;;;;;6.85;1.85;;;;;;;;;;5016374;28;20072;-62
2023/10/30 11:21:27;;;;;;;5.45;1.17;;;;;;;;;;5010870;28;20057;-61
2023/10/30 11:23:56;;;;;;;5.47;1.65;;;;;;;;;;5010384;28;20052;-62
2023/10/30 11:26:39;;;;;;;8.52;1.08;;;;;;;;;;5019573;28;20056;-61
2023/10/30 11:29:09;;;;;;;4.65;1.45;;;;;;;;;;5020340;28;20049;-61
2023/10/30 11:31:51;;;;;;;6.40;1.30;;;;;;;;;;4993200;28;20053;-62
2023/10/30 11:34:18;;;;;;;7.00;1.55;;;;;;;;;;4994880;28;20053;-61
2023/10/30 11:36:48;;;;;;;6.93;1.30;;;;;;;;;;5034396;28;20057;-61
2023/10/30 11:39:21;;;;;;;6.07;1.40;;;;;;;;;;5019352;28;20053;-62
2023/10/30 11:41:53;;;;;;;11.00;1.25;;;;;;;;;;4980839;28;20068;-61
2023/10/30 11:44:20;;;;;;;4.68;1.30;;;;;;;;;;4959067;23;20124;-60
2023/10/30 11:46:51;;;;;;;9.10;1.58;;;;;;;;;;4962629;28;20054;-60
2023/10/30 11:49:20;;;;;;;5.32;1.25;;;;;;;;;;4982180;28;20054;-61
2023/10/30 11:51:49;;;;;;;7.50;1.27;;;;;;;;;;4939425;28;20065;-62
2023/10/30 11:54:20;;;;;;;;;;;;;;;;;;4994568;28;20066;-61
2023/10/30 11:56:51;;;;;;;6.25;1.00;;;;;;;;;;4993094;28;19925;-60
2023/10/30 11:59:20;;;;;;;3.10;0.80;;;;;;;;;;4975136;28;20531;-61
2023/10/30 12:01:48;;;;;;;9.95;1.65;;;;;;;;;;4959358;28;20058;-61
2023/10/30 12:04:20;;;;;;;7.68;1.35;;;;;;;;;;4976093;28;20105;-60
2023/10/30 12:06:48;;;;;;;6.63;1.48;;;;;;;;;;4991609;28;20436;-60
2023/10/30 12:09:14;;;;;;;12.32;1.90;;;;;;;;;;4990878;28;20050;-61
2023/10/30 12:11:41;;;;;;;8.32;1.40;;;;;;;;;;4975259;28;20073;-62
2023/10/30 12:14:09;;;;;;;5.03;1.33;;;;;;;;;;4998086;28;20054;-61
2023/10/30 12:16:36;;;;;;;8.45;1.63;;;;;;;;;;4998723;28;20115;-62
2023/10/30 12:19:03;;;;;;;6.97;1.20;;;;;;;;;;4986279;28;20062;-61
2023/10/30 12:21:32;;;;;;;7.07;0.95;;;;;;;;;;4978803;28;20042;-62
2023/10/30 12:23:59;;;;;;;8.68;1.27;;;;;;;;;;4960826;28;20057;-62
2023/10/30 12:26:27;;;;;;;2.83;0.93;;;;;;;;;;4993318;28;20062;-62
2023/10/30 12:28:59;;;;;;;4.43;1.10;;;;;;;;;;4993239;28;20050;-62
2023/10/30 12:31:27;;;;;;;9.13;1.17;;;;;;;;;;4969363;28;20058;-61
2023/10/30 12:34:07;;;;;;;5.40;1.27;;;;;;;;;;4934500;28;20054;-62
2023/10/30 12:36:34;;;;;;;8.45;1.50;;;;;;;;;;4965017;28;20058;-62
2023/10/30 12:39:12;;;;;;;8.85;1.40;;;;;;;;;;4962092;28;20207;-62
2023/10/30 12:41:40;;;;;;;7.55;1.17;;;;;;;;;;4965496;28;20047;-62
2023/10/30 12:44:07;;;;;;;10.37;1.37;;;;;;;;;;4977438;28;20120;-61
2023/10/30 12:46:35;;;;;;;6.35;1.00;;;;;;;;;;4995179;28;20065;-62
2023/10/30 12:49:02;;;;;;;8.45;1.00;;;;;;;;;;4978869;28;20078;-62
2023/10/30 12:51:28;;;;;;;4.70;1.35;;;;;;;;;;4980608;28;20152;-62
2023/10/30 12:53:56;;;;;;;7.35;1.27;;;;;;;;;;4960159;28;20723;-62
2023/10/30 12:56:23;;;;;;;5.85;1.60;;;;;;;;;;4977280;28;20054;-62
2023/10/30 12:58:50;;;;;;;8.32;1.50;;;;;;;;;;4982195;28;20062;-62
2023/10/30 13:01:16;;;;;;;4.85;1.50;;;;;;;;;;4961519;28;20051;-61
2023/10/30 13:03:46;;;;;;;8.65;1.92;;;;;;;;;;4950752;28;20050;-62
2023/10/30 13:06:15;;;;;;;8.20;1.65;;;;;;;;;;4984412;28;20059;-63
2023/10/30 13:08:44;;;;;;;8.77;1.90;;;;;;;;;;4968825;28;20061;-62
2023/10/30 13:11:10;;;;;;;;;;;;;;;;;;4981092;28;20054;-62
2023/10/30 13:13:37;;;;;;;12.45;3.97;;;;;;;;;;4953009;28;20016;-62
2023/10/30 13:16:06;;;;;;;18.30;8.13;;;;;;;;;;4977787;28;20055;-62
2023/10/30 13:18:33;;;;;;;23.35;7.90;;;;;;;;;;4967378;28;20062;-62
2023/10/30 13:21:01;;;;;;;12.98;3.22;;;;;;;;;;4983057;28;20081;-62
2023/10/30 13:23:27;;;;;;;5.45;1.35;;;;;;;;;;4975296;28;20054;-62
2023/10/30 13:25:54;;;;;;;8.25;1.63;;;;;;;;;;4994505;28;20054;-62
2023/10/30 13:28:22;;;;;;;4.75;1.45;;;;;;;;;;4983687;28;20050;-62
2023/10/30 13:30:49;;;;;;;4.97;1.63;;;;;;;;;;4997019;28;20046;-62
2023/10/30 13:33:20;;;;;;;6.03;1.10;;;;;;;;;;4944784;28;20080;-62
2023/10/30 13:35:49;;;;;;;4.20;1.05;;;;;;;;;;4962708;28;20053;-62
2023/10/30 13:38:17;;;;;;;11.98;5.50;;;;;;;;;;4968709;28;20061;-63
2023/10/30 13:40:44;;;;;;;11.45;5.80;;;;;;;;;;4981511;28;20129;-63
2023/10/30 13:43:11;;;;;;;21.83;7.95;;;;;;;;;;4961525;28;20072;-63
2023/10/30 13:45:40;;;;;;;9.80;2.95;;;;;;;;;;4967621;28;20086;-64
2023/10/30 13:48:07;;;;;;;7.70;1.33;;;;;;;;;;4961853;28;20141;-63
2023/10/30 13:50:34;;;;;;;5.15;1.48;;;;;;;;;;4977482;28;20085;-63
2023/10/30 13:53:01;;;;;;;3.78;1.17;;;;;;;;;;4961194;28;20047;-63
2023/10/30 13:55:30;;;;;;;5.85;1.50;;;;;;;;;;4962188;28;20042;-63
2023/10/30 13:57:59;;;;;;;7.53;1.52;;;;;;;;;;4974421;28;20063;-63
2023/10/30 14:00:26;;;;;;;7.95;1.42;;;;;;;;;;4980011;28;20050;-63
2023/10/30 14:02:55;;;;;;;4.57;1.30;;;;;;;;;;4959460;28;20054;-63
2023/10/30 14:05:22;;;;;;;5.40;1.50;;;;;;;;;;4976945;28;20059;-63
2023/10/30 14:07:49;;;;;;;6.82;1.63;;;;;;;;;;4961329;28;20098;-63
2023/10/30 14:10:19;;;;;;;4.00;1.10;;;;;;;;;;4962110;28;20075;-61
2023/10/30 14:12:47;;;;;;;8.07;1.98;;;;;;;;;;4938068;28;20069;-62
2023/10/30 14:15:13;;;;;;;4.82;1.40;;;;;;;;;;4976540;28;20051;-62
2023/10/30 14:17:42;;;;;;;3.28;1.30;;;;;;;;;;4959920;28;20392;-62
2023/10/30 14:20:11;;;;;;;14.75;6.60;;;;;;;;;;4963374;28;20082;-61
2023/10/30 14:22:38;;;;;;;44.00;20.60;;;;;;;;;;4942638;28;20065;-62
2023/10/30 14:25:14;;;;;;;32.38;16.05;;;;;;;;;;4964205;28;20078;-62
2023/10/30 14:27:43;;;;;;;21.25;7.85;;;;;;;;;;4973522;28;20080;-63
2023/10/30 14:30:16;;;;;;;17.17;5.72;;;;;;;;;;4978915;28;20055;-61
2023/10/30 14:32:42;;;;;;;12.85;4.65;;;;;;;;;;4964363;28;20050;-61
2023/10/30 14:35:09;;;;;;;8.27;1.85;;;;;;;;;;4978609;28;20082;-62
2023/10/30 14:37:36;;;;;;;3.92;1.23;;;;;;;;;;4976947;28;20137;-64
2023/10/30 14:40:03;;;;;;;4.78;1.17;;;;;;;;;;4959595;28;20981;-62
2023/10/30 14:42:30;;;;;;;7.28;1.25;;;;;;;;;;4919394;28;20159;-62
2023/10/30 14:44:57;;;;;;;5.57;1.73;;;;;;;;;;4989394;28;20058;-63
2023/10/30 14:47:28;;;;;;;8.18;1.33;;;;;;;;;;4984504;28;20065;-62
2023/10/30 14:49:56;;;;;;;6.85;1.48;;;;;;;;;;4995474;28;20058;-62